Time;durP1;ratioP1;P1;durP2;ratioP2;P2;SDS_P1;SDS_P2;PMS_P1;PMS_P2;Temp;Humidity;BMP_temperature;BMP_pressure;BME280_temperature;BME280_humidity;BME280_pressure;Samples;Min_cycle;Max_cycle;Signal;HPM_P1;HPM_P2
2022/05/21 00:00:00;;;;;;;1.85;1.63;;;;;;;8.87;66.29;93917.09;5110621;28;20047;-52
2022/05/21 00:02:26;;;;;;;2.35;1.67;;;;;;;8.71;66.50;93918.09;5110628;28;20019;-55
2022/05/21 00:04:52;;;;;;;5.07;1.77;;;;;;;8.33;67.10;93916.72;5111089;28;20121;-55
2022/05/21 00:07:17;;;;;;;3.92;2.05;;;;;;;8.12;67.53;93913.00;5110575;28;20485;-53
2022/05/21 00:09:43;;;;;;;2.53;2.03;;;;;;;8.18;66.90;93919.16;5110660;28;20168;-54
2022/05/21 00:12:08;;;;;;;2.55;2.03;;;;;;;8.22;67.08;93914.84;5110554;28;20024;-53
2022/05/21 00:14:37;;;;;;;2.08;1.85;;;;;;;8.31;67.18;93913.75;5110876;28;20024;-55
2022/05/21 00:17:03;;;;;;;2.75;1.92;;;;;;;8.35;66.66;93912.19;5110963;28;20023;-53
2022/05/21 00:19:28;;;;;;;2.20;1.98;;;;;;;8.38;67.33;93904.88;5109818;28;20443;-49
2022/05/21 00:21:54;;;;;;;2.53;1.92;;;;;;;8.17;67.53;93906.66;5110773;28;20028;-54
2022/05/21 00:24:20;;;;;;;2.47;1.67;;;;;;;7.80;68.85;93901.16;5110497;28;20027;-54
2022/05/21 00:26:45;;;;;;;2.65;1.45;;;;;;;7.81;68.37;93897.16;5110785;28;20019;-54
2022/05/21 00:29:11;;;;;;;2.38;1.70;;;;;;;7.69;69.00;93899.31;5110801;28;20042;-54
2022/05/21 00:31:36;;;;;;;2.78;1.30;;;;;;;7.57;69.14;93903.47;5110376;28;20567;-54
2022/05/21 00:34:02;;;;;;;1.80;1.52;;;;;;;7.54;68.65;93872.28;5110463;28;20049;-52
2022/05/21 00:36:29;;;;;;;4.30;1.77;;;;;;;7.87;68.13;93900.56;5110064;28;20023;-49
2022/05/21 00:38:55;;;;;;;2.67;1.80;;;;;;;7.64;68.07;93895.38;5111751;28;20596;-54
2022/05/21 00:41:21;;;;;;;1.88;1.48;;;;;;;7.39;68.53;93902.16;5114305;28;20102;-54
2022/05/21 00:43:49;;;;;;;2.08;1.50;;;;;;;7.63;68.14;93887.66;5114727;28;20038;-54
2022/05/21 00:46:17;;;;;;;3.10;1.58;;;;;;;7.78;67.50;93889.94;5114688;28;20032;-54
2022/05/21 00:48:44;;;;;;;3.83;1.60;;;;;;;7.76;67.32;93887.72;5114339;28;20027;-55
2022/05/21 00:51:14;;;;;;;2.83;1.42;;;;;;;7.84;67.41;93891.34;5114179;28;20023;-55
2022/05/21 00:53:40;;;;;;;4.75;2.05;;;;;;;7.76;67.13;93879.47;5113398;28;20015;-53
2022/05/21 00:56:06;;;;;;;3.58;1.60;;;;;;;7.72;67.40;93883.78;5112914;28;20016;-53
2022/05/21 01:01:16;;;;;;;1.40;1.17;;;;;;;7.48;67.96;93876.34;5113032;28;20031;-50
2022/05/21 01:03:43;;;;;;;1.70;1.35;;;;;;;7.51;67.10;93883.56;5114073;28;20107;-50
2022/05/21 01:06:09;;;;;;;2.80;1.77;;;;;;;7.37;67.48;93879.97;5113380;28;20077;-51
2022/05/21 01:08:34;;;;;;;3.13;1.50;;;;;;;7.16;67.82;93889.22;5113035;28;20114;-50
2022/05/21 01:11:02;;;;;;;1.35;1.25;;;;;;;7.11;67.53;93887.25;5114252;28;20064;-53
2022/05/21 01:13:32;;;;;;;1.50;1.40;;;;;;;7.26;67.08;93890.34;5112978;28;20047;-53
2022/05/21 01:15:58;;;;;;;3.22;1.58;;;;;;;7.18;67.49;93890.19;5104826;28;20027;-53
2022/05/21 01:18:24;;;;;;;1.65;1.50;;;;;;;7.20;67.71;93881.41;5093446;28;20038;-53
2022/05/21 01:20:55;;;;;;;1.55;1.45;;;;;;;6.95;68.79;93880.72;5093535;28;20012;-56
2022/05/21 01:23:20;;;;;;;1.50;1.40;;;;;;;6.73;69.17;93875.44;5093624;28;20020;-53
2022/05/21 01:25:47;;;;;;;2.05;1.48;;;;;;;6.70;70.03;93882.69;5093551;28;20024;-53
2022/05/21 01:28:15;;;;;;;2.55;1.83;;;;;;;6.69;71.01;93877.72;5091992;28;20489;-54
2022/05/21 01:30:47;;;;;;;1.65;1.40;;;;;;;6.81;70.49;93881.84;5093116;28;20161;-54
2022/05/21 01:33:16;;;;;;;2.60;1.50;;;;;;;6.85;70.02;93876.78;5091854;28;20542;-56
2022/05/21 01:35:43;;;;;;;1.35;1.20;;;;;;;6.90;69.52;93873.25;5093097;28;20492;-55
2022/05/21 01:38:10;;;;;;;3.30;1.40;;;;;;;6.67;69.24;93850.78;5101619;28;20027;-55
2022/05/21 01:40:36;;;;;;;2.00;1.45;;;;;;;6.41;69.50;93877.94;5113518;28;20107;-55
2022/05/21 01:45:48;;;;;;;2.00;1.70;;;;;;;6.13;70.18;93874.66;5113575;28;20022;-43
2022/05/21 01:48:18;;;;;;;2.70;1.92;;;;;;;6.13;70.13;93873.94;5113460;28;20024;-46
2022/05/21 01:50:44;;;;;;;2.78;2.10;;;;;;;6.30;70.26;93877.31;5112453;28;20090;-45
2022/05/21 01:53:10;;;;;;;2.15;1.80;;;;;;;6.43;69.73;93869.22;5113183;28;20632;-45
2022/05/21 01:55:35;;;;;;;2.03;1.75;;;;;;;6.39;69.49;93868.75;5113041;28;20028;-46
2022/05/21 01:58:01;;;;;;;2.95;1.42;;;;;;;6.18;69.94;93871.16;5112359;28;20024;-46
2022/05/21 02:00:27;;;;;;;2.13;1.73;;;;;;;6.17;70.91;93877.16;5113199;28;20032;-44
2022/05/21 02:02:52;;;;;;;2.75;1.23;;;;;;;6.36;69.04;93872.50;5113157;28;20034;-44
2022/05/21 02:05:18;;;;;;;2.10;1.85;;;;;;;6.24;68.59;93871.84;5113157;28;20500;-46
2022/05/21 02:07:43;;;;;;;1.50;1.35;;;;;;;5.94;69.18;93865.59;5113118;28;20412;-49
2022/05/21 02:10:09;;;;;;;2.92;1.70;;;;;;;6.04;69.95;93864.75;5112993;28;20557;-48
2022/05/21 02:12:34;;;;;;;1.85;1.73;;;;;;;6.09;69.50;93855.75;5112582;28;20035;-50
2022/05/21 02:14:59;;;;;;;3.00;1.60;;;;;;;6.07;69.56;93852.78;5112624;28;20023;-45
2022/05/21 02:17:25;;;;;;;2.22;1.65;;;;;;;6.06;69.74;93856.06;5113017;28;20027;-44
2022/05/21 02:19:51;;;;;;;2.20;2.00;;;;;;;5.99;69.93;93853.84;5112455;28;20027;-44
2022/05/21 02:22:17;;;;;;;2.15;1.60;;;;;;;5.84;69.67;93853.47;5112525;28;20026;-44
2022/05/21 02:24:42;;;;;;;4.45;1.58;;;;;;;5.90;69.52;93852.16;5112779;27;20030;-43
2022/05/21 02:27:12;;;;;;;3.85;1.25;;;;;;;6.08;68.55;93846.06;5110658;28;20092;-44
2022/05/21 02:29:38;;;;;;;5.55;1.50;;;;;;;5.94;68.40;93846.41;5092018;28;20026;-45
2022/05/21 02:32:04;;;;;;;1.40;1.25;;;;;;;5.81;68.90;93848.94;5091941;28;20016;-44
2022/05/21 02:34:30;;;;;;;1.40;1.27;;;;;;;5.74;68.98;93846.78;5092117;28;20429;-45
2022/05/21 02:39:40;;;;;;;1.77;1.58;;;;;;;5.37;69.86;93839.75;5092076;28;20047;-48
2022/05/21 02:42:43;;;;;;;1.88;1.50;;;;;;;5.48;69.61;93843.69;5091634;28;20016;-51
2022/05/21 02:44:51;;;;;;;1.73;1.63;;;;;;;5.23;70.92;93835.34;5091601;28;20023;-52
2022/05/21 02:47:16;;;;;;;1.48;1.38;;;;;;;5.31;71.05;93832.81;5097762;28;20020;-50
2022/05/21 02:49:42;;;;;;;1.33;1.23;;;;;;;5.46;70.50;93825.00;5091106;28;20073;-51
2022/05/21 02:52:07;;;;;;;1.75;1.45;;;;;;;5.46;70.57;93822.28;5091792;28;20016;-49
2022/05/21 02:54:33;;;;;;;2.45;1.73;;;;;;;5.30;70.32;93817.66;5091767;28;20024;-51
2022/05/21 02:56:58;;;;;;;1.98;1.33;;;;;;;5.29;70.56;93821.63;5098067;28;20034;-47
2022/05/21 02:59:23;;;;;;;1.42;1.33;;;;;;;5.52;70.46;93816.78;5111570;28;20054;-48
2022/05/21 03:01:49;;;;;;;2.60;1.40;;;;;;;5.61;68.51;93825.41;5111555;28;20026;-49
2022/05/21 03:04:14;;;;;;;1.60;1.50;;;;;;;5.60;68.76;93823.94;5111685;28;20030;-49
2022/05/21 03:06:40;;;;;;;1.98;1.83;;;;;;;5.64;68.00;93829.88;5111948;28;20027;-48
2022/05/21 03:11:49;;;;;;;1.45;1.25;;;;;;;5.75;67.19;93823.59;5111698;28;20404;-49
2022/05/21 03:14:15;;;;;;;1.15;1.10;;;;;;;5.65;67.86;93833.38;5111570;28;20020;-50
2022/05/21 03:16:40;;;;;;;2.53;1.70;;;;;;;5.64;68.39;93829.88;5111767;28;20028;-47
2022/05/21 03:19:06;;;;;;;2.47;1.50;;;;;;;5.68;67.99;93838.56;5110951;28;20491;-48
2022/05/21 03:21:31;;;;;;;1.30;1.20;;;;;;;5.63;68.21;93833.88;5111059;28;20026;-48
2022/05/21 03:23:56;;;;;;;1.63;1.52;;;;;;;5.58;68.13;93837.41;5111399;28;20055;-47
2022/05/21 03:26:22;;;;;;;1.70;1.60;;;;;;;5.37;68.97;93836.28;5111238;28;20023;-47
2022/05/21 03:28:48;;;;;;;3.85;1.50;;;;;;;5.27;69.52;93835.81;5111303;28;20152;-47
2022/05/21 03:31:13;;;;;;;1.60;1.33;;;;;;;5.16;69.87;93829.63;5111157;28;20259;-47
2022/05/21 03:33:39;;;;;;;1.80;1.40;;;;;;;5.20;70.80;93821.91;5111467;28;20024;-47
2022/05/21 03:36:04;;;;;;;5.90;1.77;;;;;;;5.35;70.04;93825.81;5111179;28;20515;-47
2022/05/21 03:38:30;;;;;;;2.40;1.40;;;;;;;5.19;69.24;93837.59;5111082;28;20023;-47
2022/05/21 03:40:56;;;;;;;1.52;1.42;;;;;;;5.21;69.50;93835.09;5111344;28;20018;-48
2022/05/21 03:43:21;;;;;;;4.40;1.45;;;;;;;5.16;69.42;93832.38;5092503;28;20028;-52
2022/05/21 03:45:46;;;;;;;5.97;1.40;;;;;;;5.22;69.29;93835.84;5090656;28;20512;-47
2022/05/21 03:48:12;;;;;;;1.60;1.50;;;;;;;5.26;69.04;93839.78;5090872;28;20024;-47
2022/05/21 03:50:38;;;;;;;2.65;1.67;;;;;;;5.30;69.65;93834.06;5089326;28;20099;-50
2022/05/21 03:53:04;;;;;;;1.65;1.55;;;;;;;5.38;70.48;93837.75;5089493;28;20024;-50
2022/05/21 03:55:30;;;;;;;2.17;1.92;;;;;;;5.43;70.15;93836.25;5088962;28;20019;-52
2022/05/21 03:57:56;;;;;;;2.45;1.50;;;;;;;5.47;70.41;93844.94;5107850;28;20039;-50
2022/05/21 04:00:22;;;;;;;3.00;1.27;;;;;;;5.46;70.96;93857.88;5110417;28;20027;-49
2022/05/21 04:02:48;;;;;;;1.92;1.83;;;;;;;5.46;71.35;93859.88;5110555;28;20031;-47
2022/05/21 04:05:14;;;;;;;1.98;1.50;;;;;;;5.19;72.21;93856.75;5110389;28;20023;-50
2022/05/21 04:07:40;;;;;;;2.08;1.80;;;;;;;5.52;72.08;93861.34;5110625;28;20035;-50
2022/05/21 04:10:07;;;;;;;1.85;1.52;;;;;;;5.55;71.77;93865.03;5110364;28;20019;-49
2022/05/21 04:12:33;;;;;;;2.33;1.70;;;;;;;5.48;72.27;93846.44;5110578;28;20046;-47
2022/05/21 04:14:58;;;;;;;3.45;1.65;;;;;;;5.54;73.26;93864.31;5108914;28;20500;-50
2022/05/21 04:17:24;;;;;;;2.20;1.77;;;;;;;5.57;73.76;93857.81;5109058;28;20032;-49
2022/05/21 04:19:49;;;;;;;2.15;1.95;;;;;;;5.95;73.46;93856.13;5104599;28;20012;-50
2022/05/21 04:22:15;;;;;;;5.90;2.38;;;;;;;6.10;73.50;93854.53;5089940;28;20028;-50
2022/05/21 04:24:40;;;;;;;4.35;1.90;;;;;;;6.41;72.61;93858.03;5089773;28;20506;-52
2022/05/21 04:27:07;;;;;;;1.98;1.55;;;;;;;6.63;71.35;93855.06;5089851;28;20024;-50
2022/05/21 04:29:34;;;;;;;5.18;1.70;;;;;;;6.85;71.26;93852.09;5089701;28;20081;-51
2022/05/21 04:31:59;;;;;;;9.60;2.80;;;;;;;7.16;71.02;93861.75;5089022;28;20081;-54
2022/05/21 04:34:25;;;;;;;2.95;2.00;;;;;;;7.45;70.09;93860.91;5089391;28;20023;-55
2022/05/21 04:36:50;;;;;;;1.98;1.77;;;;;;;8.03;69.93;93863.88;5089735;28;20409;-55
2022/05/21 04:39:15;;;;;;;7.65;1.67;;;;;;;8.87;67.93;93853.78;5089731;28;20024;-55
2022/05/21 04:41:41;;;;;;;6.93;1.80;;;;;;;9.42;66.00;93856.75;5094506;28;20012;-57
2022/05/21 04:44:07;;;;;;;6.78;1.67;;;;;;;9.65;64.99;93866.03;5109922;28;20031;-56
2022/05/21 04:46:34;;;;;;;2.08;1.73;;;;;;;9.73;64.99;93861.34;5109925;28;20038;-55
2022/05/21 04:49:00;;;;;;;5.00;1.92;;;;;;;9.60;65.52;93856.63;5110330;28;20027;-52
2022/05/21 04:51:25;;;;;;;8.65;3.60;;;;;;;9.84;64.91;93852.84;5094340;28;20028;-51
2022/05/21 04:53:51;;;;;;;6.88;4.45;;;;;;;10.14;64.69;93853.22;5089651;28;20032;-52
2022/05/21 04:56:16;;;;;;;3.15;2.35;;;;;;;10.57;64.33;93852.69;5098803;28;20012;-49
2022/05/21 04:58:42;;;;;;;2.88;2.28;;;;;;;11.01;63.48;93853.59;5108663;28;20050;-54
2022/05/21 05:01:07;;;;;;;5.90;2.65;;;;;;;11.27;62.45;93856.19;5109689;28;20062;-51
2022/05/21 05:03:33;;;;;;;2.88;2.58;;;;;;;11.53;62.09;93844.91;5109676;28;20024;-53
2022/05/21 05:06:00;;;;;;;4.55;2.92;;;;;;;12.36;59.94;93852.81;5109773;28;20103;-54
2022/05/21 05:08:26;;;;;;;3.92;2.08;;;;;;;13.01;57.68;93840.84;5109990;28;20035;-51
2022/05/21 05:10:52;;;;;;;3.42;1.88;;;;;;;13.15;56.41;93842.16;5109989;28;20016;-54
2022/05/21 05:13:18;;;;;;;2.33;1.90;;;;;;;12.92;56.89;93844.91;5109978;28;20786;-51
2022/05/21 05:15:44;;;;;;;7.15;2.03;;;;;;;12.89;57.87;93840.47;5109578;28;20417;-53
2022/05/21 05:18:13;;;;;;;2.22;1.80;;;;;;;12.98;57.53;93847.50;5108852;28;20023;-51
2022/05/21 05:20:38;;;;;;;2.63;2.17;;;;;;;13.58;55.94;93847.44;5109939;28;20507;-50
2022/05/21 05:23:05;;;;;;;7.15;1.88;;;;;;;14.07;54.90;93838.56;5109913;28;20106;-49
2022/05/21 05:25:31;;;;;;;4.05;2.30;;;;;;;14.15;55.63;93836.50;5110241;28;20515;-49
2022/05/21 05:27:57;;;;;;;3.30;2.10;;;;;;;14.09;55.71;93846.34;5113091;27;20019;-49
2022/05/21 05:30:23;;;;;;;3.08;1.80;;;;;;;13.96;56.86;93839.00;5113490;28;20020;-48
2022/05/21 05:32:49;;;;;;;3.70;2.20;;;;;;;14.07;58.52;93827.47;5099057;28;20488;-48
2022/05/21 05:35:16;;;;;;;3.47;2.17;;;;;;;14.19;57.86;93838.88;5091778;28;20047;-49
2022/05/21 05:37:42;;;;;;;80.15;6.13;;;;;;;14.46;57.91;93817.66;5097054;28;20038;-46
2022/05/21 05:40:12;;;;;;;41.53;6.97;;;;;;;15.08;56.82;93833.31;5113225;28;20043;-48
2022/05/21 05:42:38;;;;;;;29.48;6.32;;;;;;;15.41;54.00;93828.38;5113325;27;20027;-48
2022/05/21 05:45:06;;;;;;;11.07;2.80;;;;;;;15.60;52.85;93829.31;5113256;28;20027;-48
2022/05/21 05:47:33;;;;;;;5.93;3.10;;;;;;;15.65;51.11;93814.41;5113190;28;20107;-50
2022/05/21 05:49:59;;;;;;;3.60;2.10;;;;;;;15.80;48.60;93825.38;5112968;28;20023;-47
2022/05/21 05:52:25;;;;;;;4.22;2.38;;;;;;;16.36;48.29;93814.47;5111667;28;20027;-51
2022/05/21 05:54:50;;;;;;;5.05;2.03;;;;;;;17.18;47.67;93806.19;5113111;28;20027;-50
2022/05/21 05:57:16;;;;;;;15.60;3.55;;;;;;;17.67;46.54;93808.47;5112666;28;20055;-50
2022/05/21 05:59:50;;;;;;;8.95;3.40;;;;;;;17.99;44.62;93810.13;5111316;28;20563;-49
2022/05/21 06:05:07;;;;;;;6.95;3.47;;;;;;;18.04;44.13;93809.81;5091512;28;20477;-49
2022/05/21 06:07:33;;;;;;;10.15;2.97;;;;;;;18.15;43.54;93802.88;5099047;28;20051;-48
2022/05/21 06:10:04;;;;;;;5.63;3.25;;;;;;;18.19;43.21;93806.00;5097970;27;20063;-48
2022/05/21 06:12:31;;;;;;;5.00;2.67;;;;;;;18.22;44.00;93799.19;5092000;28;20504;-48
2022/05/21 06:14:57;;;;;;;2.90;2.05;;;;;;;18.14;43.91;93796.59;5092287;28;20032;-48
2022/05/21 06:17:23;;;;;;;4.47;1.92;;;;;;;18.05;43.67;93788.94;5092086;28;20028;-49
2022/05/21 06:19:48;;;;;;;6.25;1.85;;;;;;;18.41;43.35;93790.78;5092037;28;20042;-50
2022/05/21 06:22:14;;;;;;;22.40;2.88;;;;;;;18.59;42.13;93789.28;5091323;28;20081;-49
2022/05/21 06:24:39;;;;;;;2.35;1.67;;;;;;;18.76;40.14;93763.16;5090110;28;20417;-50
2022/05/21 06:27:06;;;;;;;1.80;1.55;;;;;;;18.95;40.87;93779.88;5091906;28;20020;-48
2022/05/21 06:29:31;;;;;;;6.32;1.58;;;;;;;19.05;39.13;93780.56;5091644;28;20028;-50
2022/05/21 06:31:57;;;;;;;3.30;1.50;;;;;;;19.37;39.11;93773.63;5100135;28;20080;-52
2022/05/21 06:34:23;;;;;;;3.20;1.60;;;;;;;19.75;37.65;93775.44;5105609;28;20485;-55
2022/05/21 06:36:49;;;;;;;2.55;1.52;;;;;;;20.20;37.19;93776.97;5101550;28;20016;-53
2022/05/21 06:39:14;;;;;;;2.35;1.48;;;;;;;20.53;37.36;93757.31;5102545;28;20039;-54
2022/05/21 06:41:40;;;;;;;14.35;1.88;;;;;;;21.07;36.46;93767.00;5105945;28;20048;-49
2022/05/21 06:44:05;;;;;;;3.45;1.52;;;;;;;21.51;35.44;93759.75;5100880;28;20020;-52
2022/05/21 06:46:31;;;;;;;4.10;1.38;;;;;;;22.04;34.54;93753.06;5102062;28;20692;-48
2022/05/21 06:48:56;;;;;;;5.10;1.73;;;;;;;21.63;35.33;93752.78;5100554;28;20024;-52
2022/05/21 06:51:22;;;;;;;2.00;1.50;;;;;;;21.76;34.47;93749.34;5099740;28;20382;-50
2022/05/21 06:53:47;;;;;;;1.80;1.17;;;;;;;21.98;34.15;93746.34;5101824;28;20394;-50
2022/05/21 06:56:18;;;;;;;1.95;1.48;;;;;;;22.21;34.91;93738.53;5110170;28;20096;-48
2022/05/21 06:58:44;;;;;;;4.00;1.20;;;;;;;22.90;33.94;93736.66;5090712;28;20161;-48
2022/05/21 07:01:10;;;;;;;4.78;1.45;;;;;;;23.06;31.76;93729.81;5099721;28;20035;-48
2022/05/21 07:03:36;;;;;;;2.22;1.70;;;;;;;23.60;33.53;93731.16;5110996;28;20107;-48
2022/05/21 07:08:47;;;;;;;3.35;1.42;;;;;;;24.40;31.17;93731.56;5111517;28;20503;-49
2022/05/21 07:11:13;;;;;;;10.02;1.70;;;;;;;25.12;30.16;93728.56;5106189;28;20020;-51
2022/05/21 07:13:39;;;;;;;1.88;1.30;;;;;;;25.72;28.59;93722.00;5105557;28;20538;-47
2022/05/21 07:16:05;;;;;;;8.45;1.48;;;;;;;25.88;27.62;93731.19;5109849;28;20027;-48
2022/05/21 07:18:30;;;;;;;9.77;6.25;;;;;;;26.98;27.05;93727.09;5110632;28;20023;-55
2022/05/21 07:20:56;;;;;;;6.80;2.83;;;;;;;28.11;24.71;93714.13;5098165;28;20016;-46
2022/05/21 07:23:24;;;;;;;10.77;1.70;;;;;;;29.34;23.25;93717.97;5090877;28;20120;-48
2022/05/21 07:25:49;;;;;;;4.05;1.30;;;;;;;30.17;23.41;93723.09;5090438;28;20024;-48
2022/05/21 07:28:16;;;;;;;5.82;1.20;;;;;;;30.28;22.62;93722.63;5096050;28;20492;-48
2022/05/21 07:30:43;;;;;;;5.43;1.40;;;;;;;31.11;21.06;93713.94;5099974;28;20123;-52
2022/05/21 07:33:10;;;;;;;7.95;1.77;;;;;;;32.05;20.14;93714.44;5098678;28;20020;-49
2022/05/21 07:35:37;;;;;;;2.27;1.00;;;;;;;32.58;19.36;93705.34;5105330;27;20088;-51
2022/05/21 07:38:07;;;;;;;2.28;1.10;;;;;;;33.65;20.04;93704.00;5099467;28;20429;-50
2022/05/21 07:40:33;;;;;;;2.13;0.90;;;;;;;34.24;17.06;93708.94;5100459;28;20028;-54
2022/05/21 07:42:59;;;;;;;13.48;1.58;;;;;;;34.33;16.85;93706.88;5096958;28;20513;-56
2022/05/21 07:45:24;;;;;;;23.52;2.80;;;;;;;35.04;18.12;93703.16;5099287;28;20035;-54
2022/05/21 07:47:50;;;;;;;34.80;2.90;;;;;;;35.60;16.01;93704.94;5100516;28;20027;-56
2022/05/21 07:50:17;;;;;;;2.65;1.20;;;;;;;35.99;14.62;93683.53;5100055;28;20019;-54
2022/05/21 07:52:43;;;;;;;16.40;1.73;;;;;;;36.13;15.74;93700.06;5098408;28;20047;-54
2022/05/21 07:55:09;;;;;;;6.03;0.90;;;;;;;36.32;14.64;93695.81;5099739;28;20027;-56
2022/05/21 07:57:35;;;;;;;26.45;3.25;;;;;;;36.76;14.72;93687.22;5099702;28;20030;-55
2022/05/21 08:00:02;;;;;;;13.63;1.80;;;;;;;37.24;14.15;93689.31;5097357;28;20036;-54
2022/05/21 08:02:27;;;;;;;12.15;1.60;;;;;;;37.88;13.08;93679.78;5100935;28;20085;-53
2022/05/21 08:04:52;;;;;;;0.82;0.80;;;;;;;38.21;13.22;93681.00;5095460;28;20019;-55
2022/05/21 08:07:18;;;;;;;16.80;1.83;;;;;;;38.05;13.61;93681.13;5088985;28;20024;-53
2022/05/21 08:09:44;;;;;;;2.83;0.98;;;;;;;38.30;14.45;93685.28;5104404;28;20027;-56
2022/05/21 08:12:14;;;;;;;12.05;1.73;;;;;;;38.40;13.16;93688.09;5099309;28;20023;-56
2022/05/21 08:14:40;;;;;;;13.38;1.60;;;;;;;38.66;13.03;93679.25;5101728;28;20024;-56
2022/05/21 08:17:06;;;;;;;7.47;1.15;;;;;;;38.53;12.85;93671.44;5107848;28;20023;-56
2022/05/21 08:19:31;;;;;;;3.70;0.90;;;;;;;38.44;13.27;93672.94;5096394;28;20024;-55
2022/05/21 08:26:56;;;;;;;6.18;1.23;;;;;;;38.54;12.99;93667.81;5104614;28;20020;-55
2022/05/21 08:27:26;;;;;;;1.60;1.30;;;;;;;38.53;12.80;93669.25;5096138;28;20043;-55
2022/05/21 08:29:52;;;;;;;4.88;1.10;;;;;;;38.05;13.37;93658.03;5101797;28;20028;-54
2022/05/21 08:32:17;;;;;;;3.83;1.02;;;;;;;38.36;12.30;93665.06;5096120;28;20016;-55
2022/05/21 08:34:44;;;;;;;1.77;1.13;;;;;;;38.56;13.11;93662.03;5107954;28;20019;-56
2022/05/21 08:37:09;;;;;;;1.48;1.00;;;;;;;39.18;11.89;93666.53;5107494;28;20091;-56
2022/05/21 08:39:36;;;;;;;2.20;1.23;;;;;;;38.87;13.58;93662.50;5107662;28;20016;-55
2022/05/21 08:42:13;;;;;;;7.95;2.33;;;;;;;38.53;12.38;93654.81;5108140;28;20133;-56
2022/05/21 08:44:47;;;;;;;3.35;0.80;;;;;;;39.24;13.00;93652.03;5108117;28;20055;-56
2022/05/21 08:47:20;;;;;;;2.38;1.00;;;;;;;39.32;12.12;93654.13;5107237;28;20520;-56
2022/05/21 08:49:50;;;;;;;1.95;1.10;;;;;;;39.52;12.81;93653.16;5106451;28;20038;-56
2022/05/21 08:52:30;;;;;;;3.75;1.60;;;;;;;39.81;12.79;93651.38;5106381;28;20019;-55
2022/05/21 08:54:59;;;;;;;1.58;1.08;;;;;;;39.64;12.86;93653.75;5106439;28;20066;-56
2022/05/21 08:57:46;;;;;;;4.43;1.42;;;;;;;40.00;12.38;93652.59;5105112;28;20030;-56
2022/05/21 09:00:24;;;;;;;1.90;1.05;;;;;;;39.99;12.55;93648.97;5107710;28;20043;-56
2022/05/21 09:02:50;;;;;;;1.13;0.80;;;;;;;39.83;12.09;93648.47;5112417;28;20092;-56
2022/05/21 09:05:18;;;;;;;2.10;0.93;;;;;;;40.02;12.75;93644.63;5111386;28;20500;-56
2022/05/21 09:08:09;;;;;;;3.90;1.00;;;;;;;40.15;11.87;93650.22;5113988;27;20123;-56
2022/05/21 09:10:35;;;;;;;23.80;2.40;;;;;;;40.55;13.22;93653.22;5112716;28;20031;-56
2022/05/21 09:13:31;;;;;;;5.53;1.00;;;;;;;40.66;12.00;93651.59;5113999;28;20508;-56
2022/05/21 09:18:40;;;;;;;29.00;3.83;;;;;;;39.96;12.90;93656.22;5114235;28;20431;-56
2022/05/21 09:21:10;;;;;;;10.68;1.35;;;;;;;40.30;12.08;93652.16;5113966;28;20020;-56
2022/05/21 09:23:51;;;;;;;15.35;1.70;;;;;;;40.46;12.53;93657.00;5112860;28;20020;-57
2022/05/21 09:26:18;;;;;;;2.13;0.95;;;;;;;40.22;12.81;93645.78;5113647;28;20063;-56
2022/05/21 09:28:44;;;;;;;2.13;1.10;;;;;;;39.99;13.18;93633.81;5113603;28;20028;-56
2022/05/21 09:31:11;;;;;;;1.52;1.05;;;;;;;40.48;11.58;93648.28;5113652;28;20500;-57
2022/05/21 09:33:41;;;;;;;3.20;1.40;;;;;;;40.86;11.88;93636.09;5112700;28;20458;-56
2022/05/21 09:36:07;;;;;;;8.07;1.20;;;;;;;40.36;11.69;93643.38;5113498;28;20488;-57
2022/05/21 09:38:52;;;;;;;1.70;1.00;;;;;;;40.15;11.99;93639.38;5113414;28;20110;-56
2022/05/21 09:41:17;;;;;;;1.92;1.10;;;;;;;40.27;12.66;93632.66;5113669;28;20085;-56
2022/05/21 09:46:37;;;;;;;6.45;1.30;;;;;;;39.84;12.39;93618.09;5112532;28;20416;-57
2022/05/21 09:49:21;;;;;;;51.22;4.45;;;;;;;40.43;11.32;93635.34;5113325;28;20031;-57
2022/05/21 09:52:01;;;;;;;7.72;2.08;;;;;;;40.18;12.26;93632.06;5113194;28;20019;-57
2022/05/21 09:54:40;;;;;;;4.05;1.10;;;;;;;39.99;12.15;93619.34;5113486;28;20555;-56
2022/05/21 09:57:06;;;;;;;4.30;0.80;;;;;;;39.70;10.72;93624.75;5111829;28;20019;-56
2022/05/21 09:59:33;;;;;;;2.83;1.13;;;;;;;39.30;12.59;93625.25;5111588;28;20056;-57
2022/05/21 10:02:01;;;;;;;2.67;1.00;;;;;;;39.78;12.22;93624.69;5112054;28;20027;-57
2022/05/21 10:04:30;;;;;;;;;;;;;;;39.92;10.48;93624.47;5113788;28;20034;-57
2022/05/21 10:07:04;;;;;;;3.88;0.95;;;;;;;40.23;11.23;93618.25;5113174;28;20002;-57
2022/05/21 10:12:35;;;;;;;1.45;1.00;;;;;;;40.12;11.54;93609.03;5111350;28;20154;-57
2022/05/21 10:15:08;;;;;;;2.58;0.95;;;;;;;40.57;10.99;93609.03;5112752;28;20075;-56
2022/05/21 10:17:37;;;;;;;1.85;1.00;;;;;;;40.49;11.69;93600.50;5111779;28;20035;-57
2022/05/21 10:20:16;;;;;;;1.77;0.75;;;;;;;40.20;11.86;93599.53;5111460;28;20397;-56
2022/05/21 10:22:59;;;;;;;1.67;1.17;;;;;;;40.29;11.13;93600.81;5112938;28;20468;-57
2022/05/21 10:25:31;;;;;;;4.18;1.00;;;;;;;40.58;10.97;93590.22;5111673;28;20035;-57
2022/05/21 10:28:08;;;;;;;3.85;1.30;;;;;;;40.67;11.13;93594.41;5111302;28;20023;-56
2022/05/21 10:30:55;;;;;;;5.32;1.17;;;;;;;40.30;11.89;93591.41;5112473;28;20055;-57
2022/05/21 10:33:32;;;;;;;1.50;1.00;;;;;;;40.44;11.47;93585.38;5111445;28;20042;-56
2022/05/21 10:36:10;;;;;;;2.70;1.13;;;;;;;40.29;10.66;93592.13;5112765;27;20035;-56
2022/05/21 10:38:41;;;;;;;5.35;1.15;;;;;;;40.13;11.14;93576.44;5112557;28;20104;-56
2022/05/21 10:41:31;;;;;;;2.97;1.20;;;;;;;40.25;10.29;93569.75;5112422;28;20028;-55
2022/05/21 10:43:59;;;;;;;7.80;1.27;;;;;;;40.36;11.48;93571.03;5092141;28;20130;-56
2022/05/21 10:46:57;;;;;;;4.32;1.23;;;;;;;40.03;11.86;93578.78;5091642;28;20121;-56
2022/05/21 10:49:25;;;;;;;4.38;1.08;;;;;;;39.94;11.50;93569.50;5090883;28;20035;-57
2022/05/21 10:52:39;;;;;;;6.30;1.40;;;;;;;38.74;11.20;93560.16;5091728;28;20028;-56
2022/05/21 10:55:10;;;;;;;9.55;1.40;;;;;;;38.16;11.68;93563.53;5071511;28;20041;-56
2022/05/21 10:58:00;;;;;;;6.55;1.25;;;;;;;37.11;13.11;93555.47;5091196;28;20032;-56
2022/05/21 11:00:39;;;;;;;1.90;1.02;;;;;;;36.97;13.01;93549.78;5091663;28;20040;-56
2022/05/21 11:03:35;;;;;;;2.83;1.15;;;;;;;37.03;12.73;93541.09;5090578;28;20024;-56
2022/05/21 11:06:12;;;;;;;3.15;1.35;;;;;;;37.03;12.83;93550.47;5091819;28;20024;-56
2022/05/21 11:08:41;;;;;;;3.10;1.60;;;;;;;37.27;11.85;93543.16;5091377;28;20028;-56
2022/05/21 11:11:31;;;;;;;4.88;1.77;;;;;;;36.73;14.34;93544.78;5091272;28;20020;-57
2022/05/21 11:14:14;;;;;;;3.40;1.30;;;;;;;36.54;14.25;93534.75;5091228;28;20105;-56
2022/05/21 11:16:45;;;;;;;3.17;1.23;;;;;;;36.06;13.97;93526.88;5091275;28;20084;-55
2022/05/21 11:19:22;;;;;;;2.53;1.40;;;;;;;35.64;13.98;93516.09;5090090;28;20020;-56
2022/05/21 11:21:58;;;;;;;24.90;2.35;;;;;;;35.64;14.85;93510.34;5099826;28;20030;-56
2022/05/21 11:24:33;;;;;;;4.28;1.92;;;;;;;35.55;15.04;93502.41;5095113;28;20626;-54
2022/05/21 11:27:28;;;;;;;33.53;3.42;;;;;;;35.00;14.55;93495.81;5103804;28;20023;-53
2022/05/21 11:29:54;;;;;;;3.13;1.10;;;;;;;34.44;15.23;93501.28;5104430;28;20028;-55
2022/05/21 11:38:14;;;;;;;13.90;2.40;;;;;;;33.64;18.31;93490.66;5106487;28;20034;-56
2022/05/21 11:41:24;;;;;;;5.68;1.67;;;;;;;33.67;16.74;93488.53;5091124;28;20031;-55
2022/05/21 11:46:50;;;;;;;22.73;2.15;;;;;;;32.83;18.20;93475.50;5069106;28;20085;-55
2022/05/21 11:49:28;;;;;;;6.13;1.95;;;;;;;32.73;17.32;93475.38;5087902;28;20027;-56
2022/05/21 11:51:55;;;;;;;6.28;1.20;;;;;;;32.56;17.37;93468.03;5088075;28;20516;-50
2022/05/21 11:54:49;;;;;;;7.15;1.83;;;;;;;32.34;18.96;93469.84;5089588;28;20032;-55
2022/05/21 11:57:33;;;;;;;16.33;2.38;;;;;;;32.07;20.30;93468.81;5070360;28;20044;-54
2022/05/21 12:00:00;;;;;;;3.17;1.17;;;;;;;31.88;18.73;93472.78;5090111;28;20079;-55
2022/05/21 12:02:29;;;;;;;10.52;1.77;;;;;;;31.76;19.81;93459.03;5089145;28;20052;-56
2022/05/21 12:05:15;;;;;;;3.17;1.05;;;;;;;31.67;20.34;93463.19;5090706;28;20046;-55
2022/05/21 12:07:40;;;;;;;2.10;1.13;;;;;;;31.30;20.58;93459.00;5088810;28;20123;-55
2022/05/21 12:10:27;;;;;;;2.75;0.98;;;;;;;31.13;20.71;93460.13;5090329;28;20111;-55
2022/05/21 12:13:16;;;;;;;15.35;1.70;;;;;;;30.82;19.88;93451.69;5089194;28;20020;-55
2022/05/21 12:15:50;;;;;;;31.00;28.02;;;;;;;30.52;19.25;93443.28;5090324;28;20020;-56
2022/05/21 12:18:25;;;;;;;28.25;3.40;;;;;;;30.31;22.85;93447.84;5090543;28;20527;-51
2022/05/21 12:20:52;;;;;;;8.75;1.58;;;;;;;30.35;22.75;93438.66;5090525;28;20409;-56